Lake George, NY

4:20 PM EST on December 07, 2016 (GMT -0500)
Pickle Hill | | Change Station

Elev 384 ft 43.41 °N, 73.63 °W | Updated 48 seconds ago

Clear
Clear
36.3 °F
Feels Like 36 °F
N
0.0
Wind Variable Wind from West
Gusts 0.0 mph

Today
High -- | Low -- °F
--% Chance of Precip.
Yesterday
High -- | Low -- °F
Precip. -- in
Pressure 29.98 in
Visibility 8.0 miles
Clouds Clear
Windchill 36 °F
Dew Point 34 °F
Humidity 92%
Rainfall 0.17 in
Snow Depth Not available.
7:14 AM 4:18 PM
First Quarter, 56% visible
METAR KGFL 072053Z AUTO 19007KT 8SM CLR 04/01 A2995 RMK AO2 SLP150 T00390006 53008
Pressure 29.98 in
Visibility 8.0 miles
Clouds Clear
Windchill 36 °F
Dew Point 34 °F
Humidity 92%
Rainfall 0.17 in
Snow Depth Not available.
7:14 AM 4:18 PM
First Quarter, 56% visible
METAR KGFL 072053Z AUTO 19007KT 8SM CLR 04/01 A2995 RMK AO2 SLP150 T00390006 53008

10-Day Weather Forecast

Almanac

Astronomy

Dec. 07, 2016 Rise Set
Actual Time
Civil Twilight
Nautical Twilight
Astronomical Twilight
Moon
Length of Visible Light
Length of Day
Tomorrow will be .
, % of the Moon is Illuminated

Today's Extremes

State Highs State Lows

Community

WunderPhotos

Upload Photos

1,956,175 photos uploaded!

WunderBlog® & News

Nearby

Air Quality

  Air Quality AQ Index Pollutant
Not available.

Snow Depth

Station Depth Elevation

Earthquake Activity

City Distance Mag. Time & Date
Minimum magnitude displayed is 2.5.

Coastal Water Temperatures

Place Temperature

Stations

Nearby Weather Stations

Station Location Temp. Windchill Dew Point Humidity Wind Precip. Elev Updated Type
                   

Watches & Warnings

There are currently no watches in effect.